createdAt,value
2023-01-17T00:24:06.906Z,97909.41
2023-01-17T00:28:24.191Z,97917.69
2023-01-17T00:32:29.301Z,97941.31
2023-01-17T00:36:13.882Z,97923.53
2023-01-17T00:40:42.835Z,97946.34
2023-01-17T01:11:07.275Z,97936.06
2023-01-17T01:15:41.404Z,97941.31
2023-01-17T01:20:11.484Z,97950.91
2023-01-17T01:29:11.204Z,97948.72
2023-01-17T01:34:04.333Z,97948.81
2023-01-17T01:38:12.087Z,97956.00
2023-01-17T01:47:08.283Z,97927.63
2023-01-17T01:56:25.828Z,97930.88
2023-01-17T02:14:15.601Z,97896.13
2023-01-17T02:18:31.615Z,97885.44
2023-01-17T02:23:06.351Z,97876.44
2023-01-17T02:27:23.901Z,97870.44
2023-01-17T02:36:25.473Z,97855.41
2023-01-17T02:41:14.663Z,97855.19
2023-01-17T02:45:25.024Z,97847.94
2023-01-17T02:49:48.336Z,97827.53
2023-01-17T03:03:09.242Z,97803.56
2023-01-17T03:11:23.963Z,97802.28
2023-01-17T03:32:11.640Z,97819.31
2023-01-17T03:36:36.623Z,97809.41
2023-01-17T03:45:13.587Z,97832.91
2023-01-17T04:11:28.032Z,97849.19
2023-01-17T04:20:12.081Z,97836.66
2023-01-17T04:24:25.298Z,97855.72
2023-01-17T04:54:13.500Z,97868.31
2023-01-17T05:15:23.893Z,97931.94
2023-01-17T05:19:20.949Z,97937.47
2023-01-17T05:31:08.091Z,97943.72
2023-01-17T05:34:37.553Z,97944.59
2023-01-17T05:37:58.279Z,97958.88
2023-01-17T05:41:06.914Z,97964.41
2023-01-17T05:44:16.926Z,97973.56
2023-01-17T05:47:25.363Z,97984.03
2023-01-17T05:50:33.766Z,97984.53
2023-01-17T05:53:38.020Z,97980.06
2023-01-17T05:56:41.324Z,98000.09
2023-01-17T05:59:44.860Z,98000.72
2023-01-17T06:02:50.030Z,98017.19
2023-01-17T06:05:57.860Z,98010.91
2023-01-17T06:09:03.581Z,98033.31
2023-01-17T06:12:07.753Z,98021.25
2023-01-17T06:15:14.234Z,98034.63
2023-01-17T06:18:18.701Z,98014.25
2023-01-17T06:21:25.486Z,98028.78
2023-01-17T06:24:32.702Z,98059.00
2023-01-17T06:27:38.202Z,98058.44
2023-01-17T06:30:44.444Z,98061.28
2023-01-17T06:33:49.437Z,97988.13
2023-01-17T06:36:53.165Z,98065.78
2023-01-17T06:39:57.942Z,98078.94
2023-01-17T06:43:10.587Z,98080.19
2023-01-17T06:46:18.896Z,98083.75
2023-01-17T06:49:22.834Z,98072.38
2023-01-17T06:52:27.082Z,98077.63
2023-01-17T06:55:34.794Z,98117.81
2023-01-17T06:58:39.176Z,98096.63
2023-01-17T07:01:45.710Z,98117.06
2023-01-17T07:04:50.083Z,98126.00
2023-01-17T07:07:53.766Z,98132.53
2023-01-17T07:11:03.383Z,98129.66
2023-01-17T07:14:15.204Z,98123.94
2023-01-17T07:17:22.832Z,98151.25
2023-01-17T07:20:28.528Z,98156.72
2023-01-17T07:23:32.648Z,98152.91
2023-01-17T07:26:38.824Z,98157.25
2023-01-17T07:29:45.400Z,98155.31
2023-01-17T07:32:55.147Z,98142.66
2023-01-17T07:36:05.297Z,98171.00
2023-01-17T07:39:11.573Z,98148.03
2023-01-17T07:42:18.614Z,98183.91
2023-01-17T07:45:24.571Z,98175.44
2023-01-17T07:48:29.645Z,98196.47
2023-01-17T07:51:36.692Z,98212.69
2023-01-17T07:54:42.323Z,98218.59
2023-01-17T07:57:51.500Z,98216.84
2023-01-17T08:01:05.723Z,98213.59
2023-01-17T08:04:12.986Z,98220.75
2023-01-17T08:07:25.965Z,98231.88
2023-01-17T08:10:33.029Z,98223.03
2023-01-17T08:13:39.286Z,98228.34
2023-01-17T08:16:48.466Z,98220.22
2023-01-17T08:19:58.476Z,98218.91
2023-01-17T08:23:05.619Z,98211.88
2023-01-17T08:26:10.209Z,98202.53
2023-01-17T08:29:19.929Z,98234.75
2023-01-17T08:32:27.119Z,98218.69
2023-01-17T08:35:35.563Z,98203.53
2023-01-17T08:38:40.751Z,98215.72
2023-01-17T08:41:45.408Z,98191.22
2023-01-17T08:44:50.145Z,98230.91
2023-01-17T08:47:54.280Z,98145.06
2023-01-17T08:51:13.265Z,98150.19
2023-01-17T08:54:17.957Z,98183.88
2023-01-17T08:57:25.516Z,98217.56
2023-01-17T09:00:46.657Z,98179.88
2023-01-17T09:04:04.903Z,98209.84
2023-01-17T09:07:29.089Z,98184.69
2023-01-17T09:10:46.647Z,98276.44
2023-01-17T09:13:55.768Z,98192.31
2023-01-17T09:17:07.492Z,98198.88
2023-01-17T09:20:24.404Z,98127.22
2023-01-17T09:23:30.692Z,98260.13
2023-01-17T09:26:45.086Z,98280.38
2023-01-17T09:29:49.257Z,98172.97
2023-01-17T09:32:55.420Z,98209.38
2023-01-17T09:36:01.896Z,98163.06
2023-01-17T09:39:10.325Z,98203.84
2023-01-17T09:42:42.410Z,98253.09
2023-01-17T09:45:46.908Z,98187.06
2023-01-17T09:48:59.744Z,98267.50
2023-01-17T09:52:05.764Z,98211.25
2023-01-17T09:55:22.737Z,98251.59
2023-01-17T09:58:58.143Z,98256.88
2023-01-17T10:02:37.027Z,98261.03
2023-01-17T10:06:20.242Z,98239.47
2023-01-17T10:09:47.373Z,98243.25
2023-01-17T10:13:24.706Z,98216.66
2023-01-17T10:16:47.125Z,98232.28
2023-01-17T10:20:12.103Z,98229.53
2023-01-17T10:23:57.354Z,98213.31
2023-01-17T10:27:02.242Z,98186.34
2023-01-17T10:30:37.350Z,98173.22
2023-01-17T10:33:53.493Z,98214.13
2023-01-17T10:37:21.544Z,98214.25
2023-01-17T10:41:06.515Z,98182.22
2023-01-17T10:44:30.979Z,98195.19
2023-01-17T10:47:38.459Z,98210.63
2023-01-17T10:51:44.198Z,98216.84
2023-01-17T10:55:14.407Z,98210.91
2023-01-17T10:58:18.501Z,98177.94
2023-01-17T11:01:22.477Z,98197.53
2023-01-17T11:04:42.987Z,98177.50
2023-01-17T11:08:10.048Z,98190.72
2023-01-17T11:11:15.516Z,98191.09
2023-01-17T11:14:23.108Z,98166.94
2023-01-17T11:17:29.794Z,98193.16
2023-01-17T11:20:39.234Z,98159.00
2023-01-17T11:23:55.877Z,98146.34
2023-01-17T11:27:02.272Z,98147.22
2023-01-17T11:30:19.550Z,98155.19
2023-01-17T11:33:57.283Z,98099.19
2023-01-17T11:37:20.942Z,98128.00
2023-01-17T11:40:41.264Z,98147.63
2023-01-17T11:44:00.508Z,98143.38
2023-01-17T11:47:11.734Z,98166.44
2023-01-17T11:50:27.810Z,98138.00
2023-01-17T11:53:37.858Z,98165.34
2023-01-17T11:56:47.256Z,98157.53
2023-01-17T12:00:03.984Z,98133.28
2023-01-17T12:03:56.795Z,98110.78
2023-01-17T12:07:26.062Z,98099.94
2023-01-17T12:10:40.470Z,98098.66
2023-01-17T12:14:49.921Z,98105.03
2023-01-17T12:18:12.580Z,98108.13
2023-01-17T12:21:32.489Z,98122.69
2023-01-17T12:24:45.730Z,98127.63
2023-01-17T12:28:06.342Z,98114.63
2023-01-17T12:31:30.874Z,98113.56
2023-01-17T12:34:56.951Z,98097.09
2023-01-17T12:38:14.049Z,98106.94
2023-01-17T12:41:30.072Z,98112.50
2023-01-17T12:45:00.276Z,98102.44
2023-01-17T12:48:15.228Z,98078.78
2023-01-17T12:51:40.608Z,98102.38
2023-01-17T12:54:50.039Z,98078.00
2023-01-17T12:58:01.759Z,98057.56
2023-01-17T13:01:26.494Z,98073.47
2023-01-17T13:04:57.481Z,98068.16
2023-01-17T13:08:26.012Z,98067.59
2023-01-17T13:11:49.365Z,98044.28
2023-01-17T13:14:55.250Z,98021.16
2023-01-17T13:18:23.638Z,98017.72
2023-01-17T13:21:30.813Z,97999.78
2023-01-17T13:25:12.979Z,97992.06
2023-01-17T13:28:28.435Z,97972.72
2023-01-17T13:31:44.179Z,97970.31
2023-01-17T13:35:09.475Z,97969.00
2023-01-17T13:38:29.937Z,97965.81
2023-01-17T13:41:51.718Z,97962.09
2023-01-17T13:44:57.504Z,97963.38
2023-01-17T13:48:15.225Z,97951.75
2023-01-17T13:51:20.885Z,97942.19
2023-01-17T13:54:36.067Z,97955.50
2023-01-17T13:57:45.542Z,97940.13
2023-01-17T14:00:51.580Z,97920.81
2023-01-17T14:03:55.678Z,97923.41
2023-01-17T14:07:21.769Z,97901.69
2023-01-17T14:10:41.631Z,97925.53
2023-01-17T14:13:47.785Z,97895.53
2023-01-17T14:16:53.057Z,97907.19
2023-01-17T14:20:06.295Z,97911.69
2023-01-17T14:23:27.452Z,97901.38
2023-01-17T14:26:49.034Z,97911.91
2023-01-17T14:30:03.812Z,97913.75
2023-01-17T14:33:26.696Z,97905.28
2023-01-17T14:36:35.663Z,97882.47
2023-01-17T14:39:51.580Z,97860.19
2023-01-17T14:43:17.325Z,97897.94
2023-01-17T14:46:34.227Z,97896.56
2023-01-17T14:49:38.128Z,97906.88
2023-01-17T14:52:42.407Z,97900.00
2023-01-17T14:56:12.393Z,97839.25
2023-01-17T14:59:23.524Z,97821.78
2023-01-17T15:02:59.305Z,97817.84
2023-01-17T15:06:20.252Z,97823.34
2023-01-17T15:09:51.802Z,97861.28
2023-01-17T15:13:15.595Z,97811.97
2023-01-17T15:16:48.777Z,97789.16
2023-01-17T15:20:04.178Z,97789.69
2023-01-17T15:23:40.637Z,97833.88
2023-01-17T15:27:08.047Z,97818.19
2023-01-17T15:30:47.905Z,97840.25
2023-01-17T15:34:30.485Z,97840.50
2023-01-17T15:37:55.008Z,97775.00
2023-01-17T15:41:30.615Z,97814.47
2023-01-17T15:45:07.242Z,97756.19
2023-01-17T15:49:04.833Z,97771.53
2023-01-17T15:52:45.795Z,97804.94
2023-01-17T15:56:28.469Z,97739.44
2023-01-17T16:00:18.571Z,97791.72
2023-01-17T16:03:33.841Z,97791.22
2023-01-17T16:07:05.092Z,97763.16
2023-01-17T16:10:36.183Z,97762.91
2023-01-17T16:13:58.911Z,97744.66
2023-01-17T16:17:23.443Z,97733.59
2023-01-17T16:20:48.366Z,97724.06
2023-01-17T16:24:32.289Z,97744.94
2023-01-17T16:27:57.684Z,97737.06
2023-01-17T16:31:20.609Z,97735.47
2023-01-17T16:34:47.160Z,97701.25
2023-01-17T16:38:20.714Z,97702.94
2023-01-17T16:41:44.762Z,97726.56
2023-01-17T16:45:07.626Z,97671.19
2023-01-17T16:52:23.274Z,97718.38
2023-01-17T16:55:46.681Z,97736.97
2023-01-17T16:59:07.650Z,97641.94
2023-01-17T17:02:31.001Z,97724.81
2023-01-17T17:06:11.175Z,97633.72
2023-01-17T17:10:02.784Z,97685.88
2023-01-17T17:13:26.119Z,97698.09
2023-01-17T17:17:22.517Z,97683.38
2023-01-17T17:21:04.852Z,97633.69
2023-01-17T17:24:41.164Z,97657.28
2023-01-17T17:28:20.082Z,97639.63
2023-01-17T17:32:06.533Z,97619.03
2023-01-17T17:36:08.316Z,97611.63
2023-01-17T17:39:59.067Z,97564.03
2023-01-17T17:43:45.957Z,97512.22
2023-01-17T17:48:07.657Z,97514.09
2023-01-17T17:52:32.122Z,97571.00
2023-01-17T18:01:21.399Z,97509.72
2023-01-17T18:09:45.345Z,97515.81
2023-01-17T18:18:15.642Z,97482.25
2023-01-17T18:31:03.907Z,97519.19
2023-01-17T19:03:25.365Z,97434.38
2023-01-17T19:08:06.569Z,97456.50
2023-01-17T19:12:11.025Z,97445.94
2023-01-17T19:16:15.475Z,97461.22
2023-01-17T19:20:25.269Z,97449.88
2023-01-17T19:41:04.192Z,97416.22
2023-01-17T19:53:11.185Z,97376.44
2023-01-17T20:10:11.347Z,97287.81
2023-01-17T20:14:23.449Z,97284.66
2023-01-17T20:27:04.833Z,97283.13
2023-01-17T20:31:11.566Z,97296.31
2023-01-17T20:35:21.238Z,97299.75
2023-01-17T20:47:21.852Z,97304.81
2023-01-17T20:51:43.392Z,97295.84
2023-01-17T20:56:10.992Z,97276.66
2023-01-17T21:00:05.847Z,97287.47
2023-01-17T21:04:11.283Z,97278.53
2023-01-17T21:08:10.294Z,97284.31
2023-01-17T21:12:10.746Z,97295.13
2023-01-17T21:16:28.102Z,97310.94
2023-01-17T21:41:11.021Z,97281.00
2023-01-17T21:45:20.863Z,97307.38
2023-01-17T22:06:53.058Z,97326.03
2023-01-17T22:11:07.328Z,97315.50
2023-01-17T22:15:08.217Z,97337.44
2023-01-17T22:19:15.658Z,97342.22
2023-01-17T22:56:18.896Z,97380.91
2023-01-17T23:00:35.170Z,97394.81
2023-01-17T23:04:22.267Z,97381.75
2023-01-17T23:25:06.511Z,97392.19
2023-01-17T23:34:20.576Z,97394.03
2023-01-17T23:48:11.558Z,97331.91
2023-01-17T23:52:16.352Z,97349.66
2023-01-17T23:56:10.467Z,97377.91
2023-01-17T23:59:57.659Z,97412.38
